sensor_id;sensor_type;location;lat;lon;timestamp;temperature;humidity
42663;DHT22;44330;51.360;6.686;2023-04-02T00:08:58;7.20;96.30
42663;DHT22;44330;51.360;6.686;2023-04-02T00:11:31;7.30;96.30
42663;DHT22;44330;51.360;6.686;2023-04-02T00:14:00;7.20;96.00
42663;DHT22;44330;51.360;6.686;2023-04-02T00:16:27;7.20;95.70
42663;DHT22;44330;51.360;6.686;2023-04-02T00:18:57;7.20;95.70
42663;DHT22;44330;51.360;6.686;2023-04-02T00:21:33;7.20;96.00
42663;DHT22;44330;51.360;6.686;2023-04-02T00:24:00;7.20;96.30
42663;DHT22;44330;51.360;6.686;2023-04-02T00:26:36;7.20;96.50
42663;DHT22;44330;51.360;6.686;2023-04-02T00:29:05;7.10;96.70
42663;DHT22;44330;51.360;6.686;2023-04-02T00:31:31;7.00;96.80
42663;DHT22;44330;51.360;6.686;2023-04-02T00:33:59;7.00;96.80
42663;DHT22;44330;51.360;6.686;2023-04-02T00:36:29;7.00;96.90
42663;DHT22;44330;51.360;6.686;2023-04-02T00:38:57;7.00;96.80
42663;DHT22;44330;51.360;6.686;2023-04-02T00:41:26;6.90;96.40
42663;DHT22;44330;51.360;6.686;2023-04-02T00:43:55;6.80;96.20
42663;DHT22;44330;51.360;6.686;2023-04-02T00:46:28;6.80;96.30
42663;DHT22;44330;51.360;6.686;2023-04-02T00:49:21;6.70;96.40
42663;DHT22;44330;51.360;6.686;2023-04-02T00:54:20;6.60;96.40
42663;DHT22;44330;51.360;6.686;2023-04-02T00:56:49;6.60;96.40
42663;DHT22;44330;51.360;6.686;2023-04-02T00:59:30;6.60;96.60
42663;DHT22;44330;51.360;6.686;2023-04-02T01:02:20;6.60;96.60
42663;DHT22;44330;51.360;6.686;2023-04-02T01:04:58;6.60;96.60
42663;DHT22;44330;51.360;6.686;2023-04-02T01:13:24;6.60;96.50
42663;DHT22;44330;51.360;6.686;2023-04-02T01:16:11;6.60;96.80
42663;DHT22;44330;51.360;6.686;2023-04-02T01:22:00;6.50;96.10
42663;DHT22;44330;51.360;6.686;2023-04-02T01:24:33;6.40;95.40
42663;DHT22;44330;51.360;6.686;2023-04-02T01:29:33;6.40;94.80
42663;DHT22;44330;51.360;6.686;2023-04-02T01:32:03;6.50;93.80
42663;DHT22;44330;51.360;6.686;2023-04-02T01:34:29;6.50;94.00
42663;DHT22;44330;51.360;6.686;2023-04-02T01:40:17;6.50;93.90
42663;DHT22;44330;51.360;6.686;2023-04-02T01:45:15;6.50;93.30
42663;DHT22;44330;51.360;6.686;2023-04-02T01:47:42;6.50;93.30
42663;DHT22;44330;51.360;6.686;2023-04-02T01:50:29;6.60;93.10
42663;DHT22;44330;51.360;6.686;2023-04-02T01:52:58;6.50;93.20
42663;DHT22;44330;51.360;6.686;2023-04-02T01:55:49;6.50;93.40
42663;DHT22;44330;51.360;6.686;2023-04-02T01:58:21;6.50;93.30
42663;DHT22;44330;51.360;6.686;2023-04-02T02:00:53;6.50;92.90
42663;DHT22;44330;51.360;6.686;2023-04-02T02:03:20;6.50;92.60
42663;DHT22;44330;51.360;6.686;2023-04-02T02:05:46;6.50;92.60
42663;DHT22;44330;51.360;6.686;2023-04-02T02:10:51;6.50;93.60
42663;DHT22;44330;51.360;6.686;2023-04-02T02:13:16;6.50;93.60
42663;DHT22;44330;51.360;6.686;2023-04-02T02:15:43;6.40;93.30
42663;DHT22;44330;51.360;6.686;2023-04-02T02:18:09;6.30;93.10
42663;DHT22;44330;51.360;6.686;2023-04-02T02:20:36;6.30;93.20
42663;DHT22;44330;51.360;6.686;2023-04-02T02:23:02;6.20;93.20
42663;DHT22;44330;51.360;6.686;2023-04-02T02:25:31;6.20;93.30
42663;DHT22;44330;51.360;6.686;2023-04-02T02:28:07;6.10;92.40
42663;DHT22;44330;51.360;6.686;2023-04-02T02:30:46;6.10;92.00
42663;DHT22;44330;51.360;6.686;2023-04-02T02:35:51;6.10;92.10
42663;DHT22;44330;51.360;6.686;2023-04-02T02:40:46;6.10;92.20
42663;DHT22;44330;51.360;6.686;2023-04-02T02:43:13;6.10;91.70
42663;DHT22;44330;51.360;6.686;2023-04-02T02:45:42;6.10;91.70
42663;DHT22;44330;51.360;6.686;2023-04-02T02:48:14;6.10;91.40
42663;DHT22;44330;51.360;6.686;2023-04-02T02:50:43;6.10;91.60
42663;DHT22;44330;51.360;6.686;2023-04-02T02:53:18;6.10;92.10
42663;DHT22;44330;51.360;6.686;2023-04-02T02:55:45;6.00;92.20
42663;DHT22;44330;51.360;6.686;2023-04-02T02:58:18;6.10;92.60
42663;DHT22;44330;51.360;6.686;2023-04-02T03:00:44;6.10;92.60
42663;DHT22;44330;51.360;6.686;2023-04-02T03:03:16;6.10;92.30
42663;DHT22;44330;51.360;6.686;2023-04-02T03:05:44;6.10;92.50
42663;DHT22;44330;51.360;6.686;2023-04-02T03:08:20;6.00;92.00
42663;DHT22;44330;51.360;6.686;2023-04-02T03:10:55;6.10;92.50
42663;DHT22;44330;51.360;6.686;2023-04-02T03:13:29;6.00;92.20
42663;DHT22;44330;51.360;6.686;2023-04-02T03:16:33;6.00;92.00
42663;DHT22;44330;51.360;6.686;2023-04-02T03:19:30;6.00;92.90
42663;DHT22;44330;51.360;6.686;2023-04-02T03:22:13;5.90;92.40
42663;DHT22;44330;51.360;6.686;2023-04-02T03:24:52;5.90;91.90
42663;DHT22;44330;51.360;6.686;2023-04-02T03:27:33;5.90;91.40
42663;DHT22;44330;51.360;6.686;2023-04-02T03:32:39;5.90;91.30
42663;DHT22;44330;51.360;6.686;2023-04-02T03:35:34;5.90;91.30
42663;DHT22;44330;51.360;6.686;2023-04-02T03:40:43;5.80;91.50
42663;DHT22;44330;51.360;6.686;2023-04-02T03:43:17;5.70;91.30
42663;DHT22;44330;51.360;6.686;2023-04-02T03:45:52;5.60;91.00
42663;DHT22;44330;51.360;6.686;2023-04-02T03:48:26;5.60;91.60
42663;DHT22;44330;51.360;6.686;2023-04-02T03:51:06;5.50;91.80
42663;DHT22;44330;51.360;6.686;2023-04-02T03:53:36;5.60;91.90
42663;DHT22;44330;51.360;6.686;2023-04-02T03:56:01;5.60;91.40
42663;DHT22;44330;51.360;6.686;2023-04-02T03:58:38;5.60;92.30
42663;DHT22;44330;51.360;6.686;2023-04-02T04:03:44;5.40;91.70
42663;DHT22;44330;51.360;6.686;2023-04-02T04:11:51;5.40;91.70
42663;DHT22;44330;51.360;6.686;2023-04-02T04:14:27;5.40;91.90
42663;DHT22;44330;51.360;6.686;2023-04-02T04:17:10;5.50;91.30
42663;DHT22;44330;51.360;6.686;2023-04-02T04:19:46;5.50;90.90
42663;DHT22;44330;51.360;6.686;2023-04-02T04:24:46;5.40;90.50
42663;DHT22;44330;51.360;6.686;2023-04-02T04:30:18;5.40;90.80
42663;DHT22;44330;51.360;6.686;2023-04-02T04:32:52;5.40;90.60
42663;DHT22;44330;51.360;6.686;2023-04-02T04:35:42;5.40;91.10
42663;DHT22;44330;51.360;6.686;2023-04-02T04:38:18;5.50;91.60
42663;DHT22;44330;51.360;6.686;2023-04-02T04:40:55;5.40;92.10
42663;DHT22;44330;51.360;6.686;2023-04-02T04:43:37;5.40;92.60
42663;DHT22;44330;51.360;6.686;2023-04-02T04:46:20;5.40;92.90
42663;DHT22;44330;51.360;6.686;2023-04-02T04:51:59;5.30;92.90
42663;DHT22;44330;51.360;6.686;2023-04-02T04:54:31;5.30;92.50
42663;DHT22;44330;51.360;6.686;2023-04-02T04:57:02;5.30;92.50
42663;DHT22;44330;51.360;6.686;2023-04-02T04:59:38;5.30;92.50
42663;DHT22;44330;51.360;6.686;2023-04-02T05:04:45;5.20;92.40
42663;DHT22;44330;51.360;6.686;2023-04-02T05:07:30;5.20;92.00
42663;DHT22;44330;51.360;6.686;2023-04-02T05:10:20;5.10;92.20
42663;DHT22;44330;51.360;6.686;2023-04-02T05:12:55;5.10;91.50
42663;DHT22;44330;51.360;6.686;2023-04-02T05:18:35;5.20;92.10
42663;DHT22;44330;51.360;6.686;2023-04-02T05:21:26;5.20;92.70
42663;DHT22;44330;51.360;6.686;2023-04-02T05:24:26;5.10;92.10
42663;DHT22;44330;51.360;6.686;2023-04-02T05:26:58;5.00;92.20
42663;DHT22;44330;51.360;6.686;2023-04-02T05:29:29;5.00;92.00
42663;DHT22;44330;51.360;6.686;2023-04-02T05:32:21;4.90;92.40
42663;DHT22;44330;51.360;6.686;2023-04-02T05:34:52;4.90;92.60
42663;DHT22;44330;51.360;6.686;2023-04-02T05:37:21;4.80;92.70
42663;DHT22;44330;51.360;6.686;2023-04-02T05:39:56;4.90;92.60
42663;DHT22;44330;51.360;6.686;2023-04-02T05:42:26;4.90;91.80
42663;DHT22;44330;51.360;6.686;2023-04-02T05:45:18;4.90;91.00
42663;DHT22;44330;51.360;6.686;2023-04-02T05:47:46;4.90;90.90
42663;DHT22;44330;51.360;6.686;2023-04-02T05:52:51;4.90;91.00
42663;DHT22;44330;51.360;6.686;2023-04-02T05:57:51;4.80;91.10
42663;DHT22;44330;51.360;6.686;2023-04-02T06:03:06;4.90;91.20
42663;DHT22;44330;51.360;6.686;2023-04-02T06:05:41;5.00;91.20
42663;DHT22;44330;51.360;6.686;2023-04-02T06:08:16;4.80;90.40
42663;DHT22;44330;51.360;6.686;2023-04-02T06:11:33;4.70;91.10
42663;DHT22;44330;51.360;6.686;2023-04-02T06:13:38;4.70;91.20
42663;DHT22;44330;51.360;6.686;2023-04-02T06:16:05;4.70;91.30
42663;DHT22;44330;51.360;6.686;2023-04-02T06:18:33;4.60;90.30
42663;DHT22;44330;51.360;6.686;2023-04-02T06:21:00;4.60;90.30
42663;DHT22;44330;51.360;6.686;2023-04-02T06:26:11;4.60;90.60
42663;DHT22;44330;51.360;6.686;2023-04-02T06:29:07;4.60;90.60
42663;DHT22;44330;51.360;6.686;2023-04-02T06:31:44;4.60;90.00
42663;DHT22;44330;51.360;6.686;2023-04-02T06:34:17;4.60;90.20
42663;DHT22;44330;51.360;6.686;2023-04-02T06:36:44;4.60;90.00
42663;DHT22;44330;51.360;6.686;2023-04-02T06:39:17;4.60;89.00
42663;DHT22;44330;51.360;6.686;2023-04-02T06:41:44;4.60;88.50
42663;DHT22;44330;51.360;6.686;2023-04-02T06:44:20;4.50;88.00
42663;DHT22;44330;51.360;6.686;2023-04-02T06:46:54;4.60;90.00
42663;DHT22;44330;51.360;6.686;2023-04-02T06:51:53;4.70;87.10
42663;DHT22;44330;51.360;6.686;2023-04-02T06:54:19;4.70;85.40
42663;DHT22;44330;51.360;6.686;2023-04-02T06:56:53;4.60;86.10
42663;DHT22;44330;51.360;6.686;2023-04-02T06:59:20;4.70;86.90
42663;DHT22;44330;51.360;6.686;2023-04-02T07:04:47;4.60;85.60
42663;DHT22;44330;51.360;6.686;2023-04-02T07:07:13;4.60;85.40
42663;DHT22;44330;51.360;6.686;2023-04-02T07:09:39;4.60;85.20
42663;DHT22;44330;51.360;6.686;2023-04-02T07:12:12;4.60;85.80
42663;DHT22;44330;51.360;6.686;2023-04-02T07:14:38;4.70;84.40
42663;DHT22;44330;51.360;6.686;2023-04-02T07:17:03;4.70;83.10
42663;DHT22;44330;51.360;6.686;2023-04-02T07:19:29;4.60;82.60
42663;DHT22;44330;51.360;6.686;2023-04-02T07:21:54;4.60;80.40
42663;DHT22;44330;51.360;6.686;2023-04-02T07:24:20;4.60;81.80
42663;DHT22;44330;51.360;6.686;2023-04-02T07:26:45;4.60;82.80
42663;DHT22;44330;51.360;6.686;2023-04-02T07:29:16;4.70;82.30
42663;DHT22;44330;51.360;6.686;2023-04-02T07:31:42;4.70;81.10
42663;DHT22;44330;51.360;6.686;2023-04-02T07:34:08;4.70;81.60
42663;DHT22;44330;51.360;6.686;2023-04-02T07:36:34;4.80;80.60
42663;DHT22;44330;51.360;6.686;2023-04-02T07:39:00;4.80;81.10
42663;DHT22;44330;51.360;6.686;2023-04-02T07:41:26;4.80;82.10
42663;DHT22;44330;51.360;6.686;2023-04-02T07:43:52;4.80;81.20
42663;DHT22;44330;51.360;6.686;2023-04-02T07:46:17;4.70;81.80
42663;DHT22;44330;51.360;6.686;2023-04-02T07:48:45;4.70;82.20
42663;DHT22;44330;51.360;6.686;2023-04-02T07:51:19;4.70;83.70
42663;DHT22;44330;51.360;6.686;2023-04-02T07:53:46;4.70;79.30
42663;DHT22;44330;51.360;6.686;2023-04-02T07:56:15;4.70;81.80
42663;DHT22;44330;51.360;6.686;2023-04-02T07:58:42;4.70;79.90
42663;DHT22;44330;51.360;6.686;2023-04-02T08:01:21;4.60;77.50
42663;DHT22;44330;51.360;6.686;2023-04-02T08:03:51;4.60;78.70
42663;DHT22;44330;51.360;6.686;2023-04-02T08:06:17;4.60;77.60
42663;DHT22;44330;51.360;6.686;2023-04-02T08:08:43;4.60;78.30
42663;DHT22;44330;51.360;6.686;2023-04-02T08:11:09;4.70;78.10
42663;DHT22;44330;51.360;6.686;2023-04-02T08:13:35;4.70;77.30
42663;DHT22;44330;51.360;6.686;2023-04-02T08:16:01;4.70;76.20
42663;DHT22;44330;51.360;6.686;2023-04-02T08:18:28;4.70;75.40
42663;DHT22;44330;51.360;6.686;2023-04-02T08:20:54;4.70;73.90
42663;DHT22;44330;51.360;6.686;2023-04-02T08:23:20;4.70;75.20
42663;DHT22;44330;51.360;6.686;2023-04-02T08:25:46;4.80;73.10
42663;DHT22;44330;51.360;6.686;2023-04-02T08:28:12;4.80;76.70
42663;DHT22;44330;51.360;6.686;2023-04-02T08:30:38;4.90;76.20
42663;DHT22;44330;51.360;6.686;2023-04-02T08:33:04;4.90;71.90
42663;DHT22;44330;51.360;6.686;2023-04-02T08:35:30;4.80;73.40
42663;DHT22;44330;51.360;6.686;2023-04-02T08:37:55;4.80;74.00
42663;DHT22;44330;51.360;6.686;2023-04-02T08:40:33;4.80;71.10
42663;DHT22;44330;51.360;6.686;2023-04-02T08:45:40;4.90;72.00
42663;DHT22;44330;51.360;6.686;2023-04-02T08:48:09;4.90;66.90
42663;DHT22;44330;51.360;6.686;2023-04-02T08:50:39;4.90;67.70
42663;DHT22;44330;51.360;6.686;2023-04-02T08:53:14;4.90;69.30
42663;DHT22;44330;51.360;6.686;2023-04-02T08:58:35;5.00;70.50
42663;DHT22;44330;51.360;6.686;2023-04-02T09:01:04;5.10;68.70
42663;DHT22;44330;51.360;6.686;2023-04-02T09:03:39;5.10;67.30
42663;DHT22;44330;51.360;6.686;2023-04-02T09:06:08;5.20;66.40
42663;DHT22;44330;51.360;6.686;2023-04-02T09:08:38;5.20;59.60
42663;DHT22;44330;51.360;6.686;2023-04-02T09:11:18;5.20;64.60
42663;DHT22;44330;51.360;6.686;2023-04-02T09:13:53;5.40;62.60
42663;DHT22;44330;51.360;6.686;2023-04-02T09:19:22;5.60;59.80
42663;DHT22;44330;51.360;6.686;2023-04-02T09:22:08;5.60;59.90
42663;DHT22;44330;51.360;6.686;2023-04-02T09:24:37;5.60;58.60
42663;DHT22;44330;51.360;6.686;2023-04-02T09:27:03;5.80;49.20
42663;DHT22;44330;51.360;6.686;2023-04-02T09:29:39;5.80;51.40
42663;DHT22;44330;51.360;6.686;2023-04-02T09:35:15;6.10;48.00
42663;DHT22;44330;51.360;6.686;2023-04-02T09:37:42;6.20;43.40
42663;DHT22;44330;51.360;6.686;2023-04-02T09:40:29;6.10;43.80
42663;DHT22;44330;51.360;6.686;2023-04-02T09:43:11;6.20;42.00
42663;DHT22;44330;51.360;6.686;2023-04-02T09:45:38;6.10;35.90
42663;DHT22;44330;51.360;6.686;2023-04-02T09:48:24;6.10;47.60
42663;DHT22;44330;51.360;6.686;2023-04-02T09:51:13;6.10;39.90
42663;DHT22;44330;51.360;6.686;2023-04-02T09:53:41;6.20;45.80
42663;DHT22;44330;51.360;6.686;2023-04-02T09:56:18;6.10;40.60
42663;DHT22;44330;51.360;6.686;2023-04-02T09:59:04;6.10;51.20
42663;DHT22;44330;51.360;6.686;2023-04-02T10:01:36;5.90;44.20
42663;DHT22;44330;51.360;6.686;2023-04-02T10:04:04;5.90;42.50
42663;DHT22;44330;51.360;6.686;2023-04-02T10:06:32;5.90;53.20
42663;DHT22;44330;51.360;6.686;2023-04-02T10:09:19;6.00;40.90
42663;DHT22;44330;51.360;6.686;2023-04-02T10:11:45;6.20;46.60
42663;DHT22;44330;51.360;6.686;2023-04-02T10:14:20;6.40;42.10
42663;DHT22;44330;51.360;6.686;2023-04-02T10:16:51;6.50;35.70
42663;DHT22;44330;51.360;6.686;2023-04-02T10:19:28;6.60;27.20
42663;DHT22;44330;51.360;6.686;2023-04-02T10:21:57;6.40;32.00
42663;DHT22;44330;51.360;6.686;2023-04-02T10:24:26;6.30;35.00
42663;DHT22;44330;51.360;6.686;2023-04-02T10:32:17;6.20;42.90
42663;DHT22;44330;51.360;6.686;2023-04-02T10:35:03;6.00;39.00
42663;DHT22;44330;51.360;6.686;2023-04-02T10:40:35;5.90;39.50
42663;DHT22;44330;51.360;6.686;2023-04-02T10:49:19;5.80;40.90
42663;DHT22;44330;51.360;6.686;2023-04-02T10:52:00;5.80;44.40
42663;DHT22;44330;51.360;6.686;2023-04-02T10:54:48;5.80;34.40
42663;DHT22;44330;51.360;6.686;2023-04-02T11:00:02;5.90;40.00
42663;DHT22;44330;51.360;6.686;2023-04-02T11:02:37;6.00;34.70
42663;DHT22;44330;51.360;6.686;2023-04-02T11:05:18;5.90;38.00
42663;DHT22;44330;51.360;6.686;2023-04-02T11:07:52;6.00;39.00
42663;DHT22;44330;51.360;6.686;2023-04-02T11:10:20;6.10;33.90
42663;DHT22;44330;51.360;6.686;2023-04-02T11:13:35;6.00;33.60
42663;DHT22;44330;51.360;6.686;2023-04-02T11:15:36;6.10;37.90
42663;DHT22;44330;51.360;6.686;2023-04-02T11:18:02;6.20;35.10
42663;DHT22;44330;51.360;6.686;2023-04-02T11:23:12;6.20;35.50
42663;DHT22;44330;51.360;6.686;2023-04-02T11:25:40;6.20;36.40
42663;DHT22;44330;51.360;6.686;2023-04-02T11:28:22;6.00;36.00
42663;DHT22;44330;51.360;6.686;2023-04-02T11:30:51;6.00;33.10
42663;DHT22;44330;51.360;6.686;2023-04-02T11:33:39;6.10;36.70
42663;DHT22;44330;51.360;6.686;2023-04-02T11:39:10;5.90;40.40
42663;DHT22;44330;51.360;6.686;2023-04-02T11:42:01;6.00;33.60
42663;DHT22;44330;51.360;6.686;2023-04-02T11:44:28;6.10;31.90
42663;DHT22;44330;51.360;6.686;2023-04-02T11:47:17;6.20;32.10
42663;DHT22;44330;51.360;6.686;2023-04-02T11:49:56;6.30;33.10
42663;DHT22;44330;51.360;6.686;2023-04-02T11:52:48;6.20;25.80
42663;DHT22;44330;51.360;6.686;2023-04-02T11:55:22;6.20;26.10
42663;DHT22;44330;51.360;6.686;2023-04-02T12:00:36;6.20;25.20
42663;DHT22;44330;51.360;6.686;2023-04-02T12:06:22;6.40;23.70
42663;DHT22;44330;51.360;6.686;2023-04-02T12:11:45;6.60;13.30
42663;DHT22;44330;51.360;6.686;2023-04-02T12:17:15;6.70;13.40
42663;DHT22;44330;51.360;6.686;2023-04-02T12:19:56;6.60;12.40
42663;DHT22;44330;51.360;6.686;2023-04-02T12:22:24;6.60;8.80
42663;DHT22;44330;51.360;6.686;2023-04-02T12:24:58;6.70;7.70
42663;DHT22;44330;51.360;6.686;2023-04-02T12:27:27;6.70;12.00
42663;DHT22;44330;51.360;6.686;2023-04-02T12:30:16;6.80;17.50
42663;DHT22;44330;51.360;6.686;2023-04-02T12:32:42;6.70;8.30
42663;DHT22;44330;51.360;6.686;2023-04-02T12:35:32;6.60;9.70
42663;DHT22;44330;51.360;6.686;2023-04-02T12:37:58;6.60;14.80
42663;DHT22;44330;51.360;6.686;2023-04-02T12:40:24;6.70;5.00
42663;DHT22;44330;51.360;6.686;2023-04-02T12:42:50;6.70;4.80
42663;DHT22;44330;51.360;6.686;2023-04-02T12:45:27;6.80;4.00
42663;DHT22;44330;51.360;6.686;2023-04-02T12:47:55;6.90;1.00
42663;DHT22;44330;51.360;6.686;2023-04-02T12:50:21;6.70;1.00
42663;DHT22;44330;51.360;6.686;2023-04-02T12:52:50;6.90;1.00
42663;DHT22;44330;51.360;6.686;2023-04-02T12:55:19;6.70;3.40
42663;DHT22;44330;51.360;6.686;2023-04-02T12:57:45;6.60;3.70
42663;DHT22;44330;51.360;6.686;2023-04-02T13:02:49;6.70;4.80
42663;DHT22;44330;51.360;6.686;2023-04-02T13:05:55;6.60;1.00
42663;DHT22;44330;51.360;6.686;2023-04-02T13:08:37;6.70;10.90
42663;DHT22;44330;51.360;6.686;2023-04-02T13:11:04;6.80;2.10
42663;DHT22;44330;51.360;6.686;2023-04-02T13:13:35;6.70;2.70
42663;DHT22;44330;51.360;6.686;2023-04-02T13:18:36;6.70;1.00
42663;DHT22;44330;51.360;6.686;2023-04-02T13:23:44;6.60;1.00
42663;DHT22;44330;51.360;6.686;2023-04-02T13:26:22;6.70;1.00
42663;DHT22;44330;51.360;6.686;2023-04-02T13:29:17;6.70;1.00
42663;DHT22;44330;51.360;6.686;2023-04-02T13:31:43;6.70;1.00
42663;DHT22;44330;51.360;6.686;2023-04-02T13:34:09;6.80;1.00
42663;DHT22;44330;51.360;6.686;2023-04-02T13:36:35;6.90;1.00
42663;DHT22;44330;51.360;6.686;2023-04-02T13:39:01;6.70;1.00
42663;DHT22;44330;51.360;6.686;2023-04-02T13:41:30;6.70;1.00
42663;DHT22;44330;51.360;6.686;2023-04-02T13:43:58;6.60;1.00
42663;DHT22;44330;51.360;6.686;2023-04-02T13:46:26;6.60;1.00
42663;DHT22;44330;51.360;6.686;2023-04-02T13:48:54;6.50;1.00
42663;DHT22;44330;51.360;6.686;2023-04-02T13:51:22;6.50;1.00
42663;DHT22;44330;51.360;6.686;2023-04-02T13:53:56;6.60;1.00
42663;DHT22;44330;51.360;6.686;2023-04-02T13:56:22;6.70;1.00
42663;DHT22;44330;51.360;6.686;2023-04-02T13:58:49;7.00;1.00
42663;DHT22;44330;51.360;6.686;2023-04-02T14:01:16;7.10;1.00
42663;DHT22;44330;51.360;6.686;2023-04-02T14:03:42;7.40;1.00
42663;DHT22;44330;51.360;6.686;2023-04-02T14:11:44;7.60;99.90
42663;DHT22;44330;51.360;6.686;2023-04-02T14:14:34;7.80;99.90
42663;DHT22;44330;51.360;6.686;2023-04-02T14:20:05;8.10;99.90
42663;DHT22;44330;51.360;6.686;2023-04-02T14:26:10;8.30;99.90
42663;DHT22;44330;51.360;6.686;2023-04-02T14:28:59;8.50;99.90
42663;DHT22;44330;51.360;6.686;2023-04-02T14:31:43;8.50;99.90
42663;DHT22;44330;51.360;6.686;2023-04-02T14:34:32;8.20;99.90
42663;DHT22;44330;51.360;6.686;2023-04-02T14:37:09;8.30;99.90
42663;DHT22;44330;51.360;6.686;2023-04-02T14:39:40;8.30;93.80
42663;DHT22;44330;51.360;6.686;2023-04-02T14:42:15;8.30;99.90
42663;DHT22;44330;51.360;6.686;2023-04-02T14:45:01;8.30;93.60
42663;DHT22;44330;51.360;6.686;2023-04-02T14:47:36;8.40;87.20
42663;DHT22;44330;51.360;6.686;2023-04-02T14:50:31;8.70;31.00
42663;DHT22;44330;51.360;6.686;2023-04-02T14:53:00;8.80;21.70
42663;DHT22;44330;51.360;6.686;2023-04-02T14:55:33;9.00;1.00
42663;DHT22;44330;51.360;6.686;2023-04-02T14:58:02;8.80;1.00
42663;DHT22;44330;51.360;6.686;2023-04-02T15:00:42;8.70;1.00
42663;DHT22;44330;51.360;6.686;2023-04-02T15:03:24;8.70;1.00
42663;DHT22;44330;51.360;6.686;2023-04-02T15:08:34;8.50;99.90
42663;DHT22;44330;51.360;6.686;2023-04-02T15:16:43;8.50;99.90
42663;DHT22;44330;51.360;6.686;2023-04-02T15:19:14;8.80;99.90
42663;DHT22;44330;51.360;6.686;2023-04-02T15:30:05;8.80;99.90
42663;DHT22;44330;51.360;6.686;2023-04-02T15:46:43;9.30;99.90
42663;DHT22;44330;51.360;6.686;2023-04-02T15:52:20;9.20;99.90
42663;DHT22;44330;51.360;6.686;2023-04-02T16:00:16;9.40;99.90
42663;DHT22;44330;51.360;6.686;2023-04-02T16:02:59;9.50;99.90
42663;DHT22;44330;51.360;6.686;2023-04-02T16:05:56;9.10;99.90
42663;DHT22;44330;51.360;6.686;2023-04-02T16:11:13;9.30;99.90
42663;DHT22;44330;51.360;6.686;2023-04-02T16:13:40;9.70;99.90
42663;DHT22;44330;51.360;6.686;2023-04-02T16:16:33;9.70;99.90
42663;DHT22;44330;51.360;6.686;2023-04-02T16:22:01;9.90;98.20
42663;DHT22;44330;51.360;6.686;2023-04-02T16:24:27;9.50;96.40
42663;DHT22;44330;51.360;6.686;2023-04-02T16:37:54;8.80;99.90
42663;DHT22;44330;51.360;6.686;2023-04-02T16:40:37;8.80;99.90
42663;DHT22;44330;51.360;6.686;2023-04-02T16:43:38;9.10;99.90
42663;DHT22;44330;51.360;6.686;2023-04-02T16:46:18;9.20;99.90
42663;DHT22;44330;51.360;6.686;2023-04-02T16:57:08;9.20;93.60
42663;DHT22;44330;51.360;6.686;2023-04-02T16:59:31;9.10;99.80
42663;DHT22;44330;51.360;6.686;2023-04-02T17:04:51;8.60;99.90
42663;DHT22;44330;51.360;6.686;2023-04-02T17:07:32;8.20;99.90
42663;DHT22;44330;51.360;6.686;2023-04-02T17:13:14;7.90;99.90
42663;DHT22;44330;51.360;6.686;2023-04-02T17:15:44;7.90;99.90
42663;DHT22;44330;51.360;6.686;2023-04-02T17:18:20;7.90;99.90
42663;DHT22;44330;51.360;6.686;2023-04-02T17:20:49;7.90;99.90
42663;DHT22;44330;51.360;6.686;2023-04-02T17:23:17;7.90;99.90
42663;DHT22;44330;51.360;6.686;2023-04-02T17:25:56;7.80;99.90
42663;DHT22;44330;51.360;6.686;2023-04-02T17:28:26;7.60;99.90
42663;DHT22;44330;51.360;6.686;2023-04-02T17:31:16;7.50;99.90
42663;DHT22;44330;51.360;6.686;2023-04-02T17:33:42;7.70;99.90
42663;DHT22;44330;51.360;6.686;2023-04-02T17:36:21;7.80;99.90
42663;DHT22;44330;51.360;6.686;2023-04-02T17:39:06;7.90;99.90
42663;DHT22;44330;51.360;6.686;2023-04-02T17:46:50;8.00;99.90
42663;DHT22;44330;51.360;6.686;2023-04-02T17:52:27;8.00;99.90
42663;DHT22;44330;51.360;6.686;2023-04-02T18:15:33;7.00;1.00
42663;DHT22;44330;51.360;6.686;2023-04-02T18:21:49;6.90;1.00
42663;DHT22;44330;51.360;6.686;2023-04-02T18:35:06;7.00;1.00
42663;DHT22;44330;51.360;6.686;2023-04-02T18:43:06;7.00;1.00
42663;DHT22;44330;51.360;6.686;2023-04-02T18:45:55;7.00;1.00
42663;DHT22;44330;51.360;6.686;2023-04-02T18:48:51;7.00;1.00
42663;DHT22;44330;51.360;6.686;2023-04-02T18:51:23;6.90;1.00
42663;DHT22;44330;51.360;6.686;2023-04-02T18:54:02;6.90;1.00
42663;DHT22;44330;51.360;6.686;2023-04-02T18:56:30;6.80;1.00
42663;DHT22;44330;51.360;6.686;2023-04-02T19:01:48;6.60;26.40
42663;DHT22;44330;51.360;6.686;2023-04-02T19:04:19;6.50;61.80
42663;DHT22;44330;51.360;6.686;2023-04-02T19:07:00;6.40;99.90
42663;DHT22;44330;51.360;6.686;2023-04-02T19:09:30;6.30;99.90
42663;DHT22;44330;51.360;6.686;2023-04-02T19:11:56;6.20;99.90
42663;DHT22;44330;51.360;6.686;2023-04-02T19:14:22;6.10;99.90
42663;DHT22;44330;51.360;6.686;2023-04-02T19:17:13;6.00;99.90
42663;DHT22;44330;51.360;6.686;2023-04-02T19:25:29;5.60;99.90
42663;DHT22;44330;51.360;6.686;2023-04-02T19:33:57;5.30;99.90
42663;DHT22;44330;51.360;6.686;2023-04-02T19:37:04;5.20;99.90
42663;DHT22;44330;51.360;6.686;2023-04-02T19:45:00;5.20;99.90
42663;DHT22;44330;51.360;6.686;2023-04-02T19:47:27;5.10;99.90
42663;DHT22;44330;51.360;6.686;2023-04-02T19:49:53;5.00;99.90
42663;DHT22;44330;51.360;6.686;2023-04-02T19:52:19;5.00;34.60
42663;DHT22;44330;51.360;6.686;2023-04-02T19:54:45;5.00;93.00
42663;DHT22;44330;51.360;6.686;2023-04-02T19:57:13;4.90;84.00
42663;DHT22;44330;51.360;6.686;2023-04-02T19:59:38;4.90;99.90
42663;DHT22;44330;51.360;6.686;2023-04-02T20:02:04;4.90;99.90
42663;DHT22;44330;51.360;6.686;2023-04-02T20:04:34;4.80;1.00
42663;DHT22;44330;51.360;6.686;2023-04-02T20:06:59;4.80;84.80
42663;DHT22;44330;51.360;6.686;2023-04-02T20:09:25;4.70;99.90
42663;DHT22;44330;51.360;6.686;2023-04-02T20:11:51;4.70;99.90
42663;DHT22;44330;51.360;6.686;2023-04-02T20:14:16;4.60;99.90
42663;DHT22;44330;51.360;6.686;2023-04-02T20:16:42;4.50;49.20
42663;DHT22;44330;51.360;6.686;2023-04-02T20:19:07;4.40;99.90
42663;DHT22;44330;51.360;6.686;2023-04-02T20:21:33;4.40;99.90
42663;DHT22;44330;51.360;6.686;2023-04-02T20:24:05;4.40;99.90
42663;DHT22;44330;51.360;6.686;2023-04-02T20:26:32;4.30;99.90
42663;DHT22;44330;51.360;6.686;2023-04-02T20:28:58;4.30;99.90
42663;DHT22;44330;51.360;6.686;2023-04-02T20:31:23;4.20;99.90
42663;DHT22;44330;51.360;6.686;2023-04-02T20:33:53;4.20;99.90
42663;DHT22;44330;51.360;6.686;2023-04-02T20:36:19;4.20;99.90
42663;DHT22;44330;51.360;6.686;2023-04-02T20:38:44;4.20;99.90
42663;DHT22;44330;51.360;6.686;2023-04-02T20:41:10;4.10;99.90
42663;DHT22;44330;51.360;6.686;2023-04-02T20:43:36;4.10;99.90
42663;DHT22;44330;51.360;6.686;2023-04-02T20:46:05;4.10;99.90
42663;DHT22;44330;51.360;6.686;2023-04-02T20:48:32;4.00;99.90
42663;DHT22;44330;51.360;6.686;2023-04-02T20:50:59;3.90;99.90
42663;DHT22;44330;51.360;6.686;2023-04-02T20:53:28;3.80;99.90
42663;DHT22;44330;51.360;6.686;2023-04-02T20:56:04;3.80;1.00
42663;DHT22;44330;51.360;6.686;2023-04-02T20:58:32;3.70;1.00
42663;DHT22;44330;51.360;6.686;2023-04-02T21:03:35;3.60;1.00
42663;DHT22;44330;51.360;6.686;2023-04-02T21:06:01;3.50;1.00
42663;DHT22;44330;51.360;6.686;2023-04-02T21:08:27;3.50;1.00
42663;DHT22;44330;51.360;6.686;2023-04-02T21:11:00;3.50;1.00